»·PEaware :: N739KW KBUR-KLAS

N739KW :: KBUR-KLAS

FLIGHT INFORMATION

Flight Status: Arrived
Operator: Privately registered:
United States
More flights under this callsign
Pilot: Marat S. (26394)
Aircraft: BEECH AIRCRAFT SUPER KING AIR 350
(B350)
More flights by this aircraft type
Origin: KBUR Bob Hope-Burbank
United States
Destination: KLAS McCarran Intl
United States
More flights between these airports :: More routes between these airports
Route: +VNY3 DAG CRESO4
File this flight plan on PilotEdge
Remarks: I-5 Raiting. A student pilot
Altitude:
(Current/Filed)
21,000ft
Speed:
(Current/Filed)
200kts
Departed: 22-May-20 08:30 AM
Arrived: 22-May-20 09:26 AM
Distance/Time
Traveled:
194nm/0:56
Distance/Time
To Go:
Arrived

Flight Plot

Page will automatically refresh every two minutes.


Map Options




Map Legend


Flown Route
Filed Route
Departure Airport
Arrival Airport
Navaid (VOR, NDB)
Fix

Horizontal Profiles

Position Reports

Time Latitude Longitude Heading Altitude Ground
Speed
22-May-20 07:53 34.200369 -118.363551 230 736ft 0kts
22-May-20 07:54 34.200369 -118.363551 230 736ft 0kts
22-May-20 07:55 34.200369 -118.363551 230 736ft 0kts
22-May-20 07:56 34.200369 -118.363551 230 736ft 0kts
22-May-20 07:57 34.200369 -118.363551 230 736ft 0kts
22-May-20 07:57 34.200369 -118.363551 230 736ft 0kts
22-May-20 07:59 34.200369 -118.363551 230 736ft 0kts
22-May-20 07:59 34.200369 -118.363551 230 736ft 0kts
22-May-20 08:00 34.200369 -118.363551 230 736ft 0kts
22-May-20 08:02 34.200369 -118.363551 230 736ft 0kts
22-May-20 08:02 34.200369 -118.363551 230 736ft 0kts
22-May-20 08:04 34.200369 -118.363551 230 736ft 0kts
22-May-20 08:04 34.200369 -118.363551 230 736ft 0kts
22-May-20 08:05 34.200369 -118.363551 230 736ft 0kts
22-May-20 08:06 34.200369 -118.363551 230 736ft 0kts
22-May-20 08:07 34.200369 -118.363551 230 736ft 0kts
22-May-20 08:08 34.200369 -118.363551 230 736ft 0kts
22-May-20 08:09 34.200369 -118.363551 230 736ft 0kts
22-May-20 08:10 34.200369 -118.363551 230 736ft 0kts
22-May-20 08:11 34.200369 -118.363551 230 736ft 0kts
22-May-20 08:12 34.200369 -118.363551 230 736ft 0kts
22-May-20 08:13 34.200369 -118.363551 230 736ft 0kts
22-May-20 08:14 34.200369 -118.363551 230 736ft 0kts
22-May-20 08:15 34.200369 -118.363551 230 736ft 0kts
22-May-20 08:16 34.200369 -118.363551 230 736ft 0kts
22-May-20 08:17 34.200369 -118.363551 230 736ft 0kts
22-May-20 08:18 34.200369 -118.363551 230 736ft 0kts
22-May-20 08:19 34.200369 -118.363551 230 736ft 0kts
22-May-20 08:20 34.200369 -118.363551 230 736ft 0kts
22-May-20 08:21 34.200369 -118.363551 230 736ft 0kts
22-May-20 08:22 34.200369 -118.363551 230 736ft 0kts
22-May-20 08:23 34.200361 -118.363564 230 736ft 3kts
22-May-20 08:24 34.199288 -118.364555 188 732ft 8kts
22-May-20 08:25 34.199123 -118.367717 270 734ft 10kts
22-May-20 08:26 34.198739 -118.368998 179 734ft 0kts
22-May-20 08:27 34.198739 -118.368998 179 734ft 0kts
22-May-20 08:28 34.197909 -118.368495 91 731ft 29kts
22-May-20 08:29 34.185459 -118.333545 174 1952ft 168kts
22-May-20 08:30 34.148634 -118.368116 225 4083ft 179kts
22-May-20 08:31 34.116090 -118.413701 266 5933ft 182kts
22-May-20 08:32 34.156826 -118.427707 12 7782ft 189kts
22-May-20 08:33 34.207603 -118.411203 12 9686ft 191kts
22-May-20 08:34 34.259363 -118.393023 12 11504ft 196kts
22-May-20 08:35 34.312035 -118.373259 12 13022ft 207kts
22-May-20 08:36 34.373634 -118.350665 12 13008ft 249kts
22-May-20 08:37 34.430775 -118.331324 353 15368ft 194kts
22-May-20 08:38 34.480035 -118.306340 46 16866ft 217kts
22-May-20 08:39 34.516838 -118.247189 47 18266ft 221kts
22-May-20 08:40 34.554210 -118.187315 47 19568ft 224kts
22-May-20 08:41 34.592190 -118.126536 46 20965ft 231kts
22-May-20 08:42 34.631849 -118.053739 72 20995ft 285kts
22-May-20 08:43 34.643128 -117.954515 82 20983ft 307kts
22-May-20 08:44 34.654479 -117.849307 82 20982ft 318kts
22-May-20 08:45 34.668983 -117.743253 72 20986ft 321kts
22-May-20 08:46 34.695543 -117.639191 71 20981ft 323kts
22-May-20 08:47 34.722199 -117.535043 70 20981ft 324kts
22-May-20 08:48 34.748832 -117.430410 71 20980ft 324kts
22-May-20 08:49 34.775332 -117.325919 71 20969ft 323kts
22-May-20 08:50 34.801718 -117.221564 71 20968ft 322kts
22-May-20 08:51 34.828056 -117.117113 72 20961ft 322kts
22-May-20 08:52 34.854095 -117.013002 72 20950ft 322kts
22-May-20 08:53 34.880181 -116.908565 71 20921ft 323kts
22-May-20 08:54 34.906216 -116.803817 72 20923ft 322kts
22-May-20 08:55 34.932146 -116.699289 72 20918ft 322kts
22-May-20 08:56 34.958031 -116.594982 69 20918ft 322kts
22-May-20 08:57 34.997812 -116.497481 59 20921ft 320kts
22-May-20 08:58 35.040125 -116.402083 59 20925ft 321kts
22-May-20 08:59 35.082538 -116.306218 59 20909ft 320kts
22-May-20 09:00 35.124687 -116.210799 59 20913ft 319kts
22-May-20 09:01 35.166607 -116.115548 59 20915ft 319kts
22-May-20 09:02 35.208640 -116.019843 60 20908ft 318kts
22-May-20 09:03 35.249868 -115.925543 60 19588ft 312kts
22-May-20 09:04 35.290246 -115.833024 61 18100ft 306kts
22-May-20 09:05 35.338011 -115.749934 45 16527ft 289kts
22-May-20 09:06 35.391711 -115.678066 46 14345ft 284kts
22-May-20 09:07 35.444370 -115.607715 46 12160ft 278kts
22-May-20 09:08 35.495848 -115.538727 47 10035ft 270kts
22-May-20 09:09 35.546886 -115.470454 47 10009ft 274kts
22-May-20 09:10 35.598592 -115.400940 47 10008ft 276kts
22-May-20 09:11 35.650127 -115.331484 48 10006ft 275kts
22-May-20 09:12 35.712880 -115.281621 21 9132ft 267kts
22-May-20 09:13 35.780246 -115.248464 21 7622ft 255kts
22-May-20 09:14 35.844267 -115.217878 21 7002ft 235kts
22-May-20 09:15 35.902776 -115.190008 21 7008ft 218kts
22-May-20 09:16 35.958330 -115.163663 21 7012ft 211kts
22-May-20 09:17 36.012707 -115.137877 21 7018ft 208kts
22-May-20 09:18 36.066513 -115.112656 21 7022ft 207kts
22-May-20 09:19 36.117564 -115.088665 21 6976ft 187kts
22-May-20 09:20 36.161286 -115.062193 24 5528ft 156kts
22-May-20 09:21 36.189288 -115.090799 271 3837ft 144kts
22-May-20 09:22 36.164665 -115.121590 202 3407ft 127kts
22-May-20 09:23 36.131841 -115.137767 203 2966ft 128kts
22-May-20 09:24 36.101830 -115.155209 205 2201ft 105kts
22-May-20 09:25 36.089345 -115.163353 295 2126ft 9kts
22-May-20 09:26 36.089397 -115.163487 296 2126ft 0kts
22-May-20 09:27 36.089397 -115.163487 296 2126ft 0kts
22-May-20 09:28 36.091149 -115.162815 25 2120ft 20kts
22-May-20 09:29 36.095668 -115.161120 25 2103ft 10kts
22-May-20 09:30 36.098185 -115.161032 358 2099ft 5kts
22-May-20 09:31 36.098207 -115.160920 113 2098ft 0kts
22-May-20 09:32 36.098207 -115.160920 113 2098ft 0kts
22-May-20 09:33 36.098207 -115.160920 114 2098ft 0kts
22-May-20 09:34 36.098207 -115.160920 113 2098ft 0kts
22-May-20 09:35 36.098207 -115.160920 114 2098ft 0kts
22-May-20 09:36 36.098207 -115.160920 114 2098ft 0kts
22-May-20 09:38 36.098207 -115.160920 114 2098ft 0kts
22-May-20 09:39 36.098207 -115.160920 114 2098ft 0kts
22-May-20 09:40 36.098207 -115.160920 114 2098ft 0kts

Navigation Log

Ident Type
Flight plan parsing failed, navigation log unavailable